createdAt,value
2019-03-28T00:01:35.214Z,101794.64
2019-03-28T00:06:39.639Z,101787.67
2019-03-28T00:11:43.998Z,101783.32
2019-03-28T00:16:48.453Z,101782.63
2019-03-28T00:21:52.966Z,101781.27
2019-03-28T00:26:57.325Z,101782.03
2019-03-28T00:32:01.703Z,101777.73
2019-03-28T00:37:07.625Z,101780.23
2019-03-28T00:42:12.299Z,101779.91
2019-03-28T00:47:16.775Z,101777.95
2019-03-28T00:52:21.122Z,101781.16
2019-03-28T00:57:25.474Z,101780.73
2019-03-28T01:02:30.809Z,101781.66
2019-03-28T01:07:35.208Z,101785.13
2019-03-28T01:12:39.583Z,101787.69
2019-03-28T01:17:44.037Z,101780.72
2019-03-28T01:22:48.414Z,101778.11
2019-03-28T01:27:52.773Z,101779.75
2019-03-28T01:32:57.140Z,101773.64
2019-03-28T01:38:01.784Z,101770.66
2019-03-28T01:43:06.160Z,101774.89
2019-03-28T01:48:10.576Z,101771.35
2019-03-28T01:53:14.967Z,101777.95
2019-03-28T01:58:19.362Z,101770.36
2019-03-28T02:03:23.707Z,101771.84
2019-03-28T02:08:28.074Z,101772.27
2019-03-28T02:13:32.464Z,101769.66
2019-03-28T02:18:36.837Z,101760.84
2019-03-28T02:23:42.260Z,101759.75
2019-03-28T02:28:46.644Z,101758.30
2019-03-28T02:33:51.032Z,101759.73
2019-03-28T02:38:55.434Z,101765.64
2019-03-28T02:43:59.814Z,101767.27
2019-03-28T02:49:04.161Z,101765.44
2019-03-28T02:54:09.474Z,101767.36
2019-03-28T02:59:13.888Z,101767.56
2019-03-28T03:04:19.281Z,101765.80
2019-03-28T03:09:23.673Z,101768.08
2019-03-28T03:14:28.046Z,101771.78
2019-03-28T03:19:32.422Z,101765.23
2019-03-28T03:24:36.747Z,101761.84
2019-03-28T03:29:41.089Z,101775.02
2019-03-28T03:34:45.483Z,101771.03
2019-03-28T03:39:49.838Z,101768.03
2019-03-28T03:44:54.317Z,101774.39
2019-03-28T03:49:58.699Z,101769.80
2019-03-28T03:55:03.113Z,101767.80
2019-03-28T04:00:09.474Z,101769.97
2019-03-28T04:05:13.856Z,101767.48
2019-03-28T04:10:18.200Z,101773.14
2019-03-28T04:15:22.722Z,101771.54
2019-03-28T04:20:27.155Z,101776.30
2019-03-28T04:25:31.516Z,101779.53
2019-03-28T04:30:35.895Z,101785.72
2019-03-28T04:35:40.329Z,101778.85
2019-03-28T04:40:44.810Z,101778.41
2019-03-28T04:45:49.239Z,101791.50
2019-03-28T04:50:53.594Z,101790.72
2019-03-28T04:55:57.965Z,101789.27
2019-03-28T05:01:02.378Z,101796.02
2019-03-28T05:06:06.736Z,101797.52
2019-03-28T05:11:11.090Z,101797.62
2019-03-28T05:16:15.453Z,101798.27
2019-03-28T05:21:19.831Z,101805.83
2019-03-28T05:26:24.279Z,101799.64
2019-03-28T05:31:28.651Z,101802.48
2019-03-28T05:36:33.030Z,101806.58
2019-03-28T05:41:37.415Z,101811.89
2019-03-28T05:46:41.755Z,101806.90
2019-03-28T05:51:46.235Z,101809.37
2019-03-28T05:56:50.669Z,101811.45
2019-03-28T06:01:56.005Z,101808.36
2019-03-28T06:07:00.456Z,101812.83
2019-03-28T06:12:04.818Z,101813.16
2019-03-28T06:17:09.244Z,101826.80
2019-03-28T06:22:13.719Z,101833.37
2019-03-28T06:27:18.059Z,101832.43
2019-03-28T06:32:22.430Z,101835.19
2019-03-28T06:37:26.779Z,101841.06
2019-03-28T06:42:31.121Z,101841.70
2019-03-28T06:47:35.829Z,101838.41
2019-03-28T06:52:40.345Z,101844.02
2019-03-28T06:57:44.703Z,101846.70
2019-03-28T07:02:49.107Z,101851.53
2019-03-28T07:07:53.493Z,101842.78
2019-03-28T07:12:58.136Z,101846.81
2019-03-28T07:18:02.487Z,101849.28
2019-03-28T07:23:06.940Z,101850.59
2019-03-28T07:28:11.298Z,101856.12
2019-03-28T07:33:15.725Z,101860.16
2019-03-28T07:38:20.183Z,101858.04
2019-03-28T07:43:25.343Z,101863.25
2019-03-28T07:48:29.940Z,101862.69
2019-03-28T07:53:34.292Z,101858.91
2019-03-28T07:58:38.639Z,101868.37
2019-03-28T08:03:45.030Z,101870.77
2019-03-28T08:08:49.351Z,101879.12
2019-03-28T08:13:53.741Z,101875.95
2019-03-28T08:18:58.082Z,101881.30
2019-03-28T08:24:02.435Z,101884.70
2019-03-28T08:29:06.833Z,101890.05
2019-03-28T08:34:11.443Z,101889.97
2019-03-28T08:39:16.171Z,101891.27
2019-03-28T08:44:22.659Z,101896.38
2019-03-28T08:49:26.601Z,101896.74
2019-03-28T08:54:30.956Z,101902.91
2019-03-28T08:59:35.328Z,101906.81
2019-03-28T09:04:40.639Z,101909.05
2019-03-28T09:09:44.993Z,101905.06
2019-03-28T09:14:49.354Z,101913.08
2019-03-28T09:19:32.690Z,100230.95
2019-03-28T09:19:53.823Z,101913.08
2019-03-28T09:20:09.625Z,100240.72
2019-03-28T09:20:44.748Z,100240.95
2019-03-28T09:21:19.855Z,100238.12
2019-03-28T09:21:56.106Z,100241.30
2019-03-28T09:22:31.038Z,100239.96
2019-03-28T09:23:08.636Z,100239.72
2019-03-28T09:23:43.677Z,100243.14
2019-03-28T09:24:18.563Z,100239.45
2019-03-28T09:24:53.276Z,100241.45
2019-03-28T09:24:58.141Z,101911.05
2019-03-28T09:30:02.507Z,101911.59
2019-03-28T09:35:09.581Z,101912.41
2019-03-28T09:40:13.952Z,101920.97
2019-03-28T09:45:18.374Z,101917.38
2019-03-28T09:50:22.762Z,101910.16
2019-03-28T09:55:27.139Z,101903.33
2019-03-28T10:00:32.894Z,101903.72
2019-03-28T10:05:38.249Z,101901.77
2019-03-28T10:10:42.846Z,101898.88
2019-03-28T10:15:50.082Z,101910.04
2019-03-28T10:20:55.555Z,101903.94
2019-03-28T10:26:01.088Z,101903.50
2019-03-28T10:31:15.847Z,101899.80
2019-03-28T10:36:11.528Z,101901.61
2019-03-28T10:41:15.927Z,101904.31
2019-03-28T10:46:20.368Z,101902.75
2019-03-28T10:51:24.709Z,101905.84
2019-03-28T10:56:29.127Z,101908.45
2019-03-28T11:01:48.168Z,101908.84
2019-03-28T11:06:39.550Z,101905.02
2019-03-28T11:11:43.925Z,101901.05
2019-03-28T11:16:48.500Z,101909.62
2019-03-28T11:21:53.062Z,101916.23
2019-03-28T11:26:57.738Z,101924.38
2019-03-28T11:32:02.247Z,101921.84
2019-03-28T11:37:09.709Z,101932.89
2019-03-28T11:42:12.678Z,101923.41
2019-03-28T11:47:17.100Z,101931.91
2019-03-28T11:52:21.481Z,101935.06
2019-03-28T11:57:25.920Z,101940.34
2019-03-28T12:02:30.279Z,101934.34
2019-03-28T12:07:34.665Z,101936.09
2019-03-28T12:12:38.987Z,101935.99
2019-03-28T12:17:43.326Z,101927.23
2019-03-28T12:22:47.685Z,101924.67
2019-03-28T12:27:52.043Z,101930.05
2019-03-28T12:32:56.433Z,101930.08
2019-03-28T12:38:00.848Z,101925.20
2019-03-28T12:43:05.808Z,101926.55
2019-03-28T12:48:10.157Z,101920.27
2019-03-28T12:53:14.512Z,101922.06
2019-03-28T12:58:18.844Z,101918.23
2019-03-28T13:03:23.211Z,101918.23
2019-03-28T13:08:27.586Z,101919.16
2019-03-28T13:13:31.959Z,101924.33
2019-03-28T13:18:36.335Z,101925.58
2019-03-28T13:23:40.691Z,101934.09
2019-03-28T13:28:45.149Z,101923.61
2019-03-28T13:33:49.556Z,101934.69
2019-03-28T13:38:54.947Z,101933.62
2019-03-28T13:43:59.398Z,101926.77
2019-03-28T13:49:04.341Z,101926.17
2019-03-28T13:54:08.732Z,101923.51
2019-03-28T13:59:13.232Z,101927.87
2019-03-28T14:04:17.639Z,101928.69
2019-03-28T14:09:23.397Z,101927.47
2019-03-28T14:14:28.071Z,101935.60
2019-03-28T14:19:32.427Z,101931.44
2019-03-28T14:24:36.820Z,101933.19
2019-03-28T14:29:41.179Z,101929.43
2019-03-28T14:34:45.561Z,101926.66
2019-03-28T14:39:49.929Z,101923.77
2019-03-28T14:44:54.299Z,101925.83
2019-03-28T14:49:58.826Z,101929.89
2019-03-28T14:55:03.482Z,101935.75
2019-03-28T15:00:13.872Z,101942.47
2019-03-28T15:05:18.227Z,101942.33
2019-03-28T15:10:22.704Z,101935.59
2019-03-28T15:15:27.143Z,101943.39
2019-03-28T15:20:31.511Z,101938.64
2019-03-28T15:25:35.897Z,101933.20
2019-03-28T15:30:40.328Z,101930.81
2019-03-28T15:35:44.729Z,101934.87
2019-03-28T15:40:50.771Z,101936.03
2019-03-28T15:45:55.127Z,101939.14
2019-03-28T15:50:59.491Z,101935.56
2019-03-28T15:56:03.907Z,101935.88
2019-03-28T16:01:08.335Z,101933.27
2019-03-28T16:06:12.893Z,101945.56
2019-03-28T16:11:17.459Z,101944.09
2019-03-28T16:16:21.877Z,101944.52
2019-03-28T16:21:26.954Z,101951.16
2019-03-28T16:26:32.686Z,101952.54
2019-03-28T16:31:37.083Z,101947.25
2019-03-28T16:36:41.561Z,101956.40
2019-03-28T16:41:45.923Z,101951.61
2019-03-28T16:46:50.429Z,101956.33
2019-03-28T16:51:54.895Z,101965.59
2019-03-28T16:56:59.631Z,101967.83
2019-03-28T17:02:04.021Z,101963.91
2019-03-28T17:07:08.486Z,101958.02
2019-03-28T17:12:12.856Z,101958.95
2019-03-28T17:17:17.302Z,101954.70
2019-03-28T17:22:22.671Z,101967.23
2019-03-28T17:27:27.071Z,101964.72
2019-03-28T17:32:31.431Z,101971.25
2019-03-28T17:37:35.794Z,101978.77
2019-03-28T17:42:40.187Z,101974.41
2019-03-28T17:47:45.035Z,101986.16
2019-03-28T17:52:49.556Z,101991.83
2019-03-28T17:57:53.949Z,101995.70
2019-03-28T18:03:08.604Z,101999.67
2019-03-28T18:08:04.359Z,102004.66
2019-03-28T18:13:08.726Z,102014.03
2019-03-28T18:18:13.122Z,102021.74
2019-03-28T18:23:17.503Z,102022.58
2019-03-28T18:28:21.898Z,102029.58
2019-03-28T18:33:26.293Z,102029.45
2019-03-28T18:38:31.074Z,102028.52
2019-03-28T18:43:35.560Z,102036.56
2019-03-28T18:48:40.013Z,102043.52
2019-03-28T18:53:44.411Z,102047.44
2019-03-28T18:58:48.829Z,102051.38
2019-03-28T19:03:53.205Z,102051.66
2019-03-28T19:08:57.609Z,102055.45
2019-03-28T19:14:01.994Z,102051.72
2019-03-28T19:19:06.738Z,102059.20
2019-03-28T19:24:11.062Z,102053.47
2019-03-28T19:29:15.439Z,102064.37
2019-03-28T19:34:19.813Z,102065.16
2019-03-28T19:39:28.487Z,102070.01
2019-03-28T19:44:32.954Z,102069.00
2019-03-28T19:49:37.454Z,102066.77
2019-03-28T19:54:41.876Z,102059.67
2019-03-28T19:59:46.286Z,102066.85
2019-03-28T20:04:50.720Z,102069.75
2019-03-28T20:09:57.329Z,102075.53
2019-03-28T20:15:01.347Z,102078.59
2019-03-28T20:20:08.184Z,102077.30
2019-03-28T20:25:12.710Z,102075.53
2019-03-28T20:30:18.063Z,102072.84
2019-03-28T20:35:22.455Z,102070.83
2019-03-28T20:40:26.881Z,102072.30
2019-03-28T20:45:31.263Z,102076.35
2019-03-28T20:50:35.724Z,102076.35
2019-03-28T20:55:40.073Z,102080.41
2019-03-28T21:00:46.268Z,102073.56
2019-03-28T21:05:51.157Z,102081.26
2019-03-28T21:10:55.533Z,102079.03
2019-03-28T21:16:00.986Z,102083.23
2019-03-28T21:21:05.428Z,102083.45
2019-03-28T21:26:09.813Z,102075.84
2019-03-28T21:31:14.202Z,102077.22
2019-03-28T21:36:29.013Z,102070.84
2019-03-28T21:41:25.403Z,102076.78
2019-03-28T21:46:29.754Z,102073.16
2019-03-28T21:51:34.101Z,102073.66
2019-03-28T21:56:41.336Z,102075.53
2019-03-28T22:01:44.600Z,102072.66
2019-03-28T22:06:49.282Z,102075.53
2019-03-28T22:11:53.672Z,102067.86
2019-03-28T22:16:58.123Z,102071.91
2019-03-28T22:22:02.476Z,102068.67
2019-03-28T22:27:06.963Z,102072.50
2019-03-28T22:32:11.853Z,102076.64
2019-03-28T22:37:16.410Z,102077.58
2019-03-28T22:42:21.740Z,102078.30
2019-03-28T22:47:26.114Z,102075.41
2019-03-28T22:52:30.463Z,102070.70
2019-03-28T22:57:34.854Z,102075.41
2019-03-28T23:02:39.510Z,102081.98
2019-03-28T23:07:43.923Z,102079.83
2019-03-28T23:12:48.303Z,102080.05
2019-03-28T23:17:52.681Z,102080.11
2019-03-28T23:22:57.055Z,102080.56
2019-03-28T23:28:01.415Z,102085.50
2019-03-28T23:33:06.037Z,102084.67
2019-03-28T23:38:10.504Z,102081.08
2019-03-28T23:43:15.983Z,102083.73
2019-03-28T23:48:21.154Z,102086.51
2019-03-28T23:53:26.201Z,102100.87
2019-03-28T23:58:30.562Z,102102.44
